Terminal Aerodrome Forecast
Issued by NWS Charleston, SC

Home | Current Version | Previous Version | Text Only | Print | Product List | Glossary On
Versions: 1 2 3 4 5 6 7 8 9 10 11 12 13 14 15 16 17 18 19 20 21 22 23 24 25 26 27 28 29 30 31 32 33 34 35 36 37 38 39 40
000
FTUS42 KCHS 172000 AAA
TAFCHS
TAF AMD
KCHS 172027Z 1720/1818 14006KT P6SM VCTS SCT025CB BKN040
      TEMPO 1721/1723 VRB10G20KT 5SM -TSRA BKN025CB
     FM180200 VRB03KT P6SM BKN050
     FM180900 VRB02KT 5SM BR FEW009 BKN020
     FM181300 05005KT P6SM BKN035=

USA.gov is the U.S. government's official web portal to all federal, state and local government web resources and services.